sensor_id;sensor_type;location;lat;lon;timestamp;temperature;humidity
29281;DHT22;25048;49.590;11.026;2023-11-18T00:00:36;0.40;99.90
29281;DHT22;25048;49.590;11.026;2023-11-18T00:03:08;0.40;99.90
29281;DHT22;25048;49.590;11.026;2023-11-18T00:08:18;0.20;99.90
29281;DHT22;25048;49.590;11.026;2023-11-18T00:10:50;0.20;99.90
29281;DHT22;25048;49.590;11.026;2023-11-18T00:13:49;0.20;99.90
29281;DHT22;25048;49.590;11.026;2023-11-18T00:22:35;0.00;99.90
29281;DHT22;25048;49.590;11.026;2023-11-18T00:25:06;-0.10;99.90
29281;DHT22;25048;49.590;11.026;2023-11-18T00:27:46;-0.20;99.90
29281;DHT22;25048;49.590;11.026;2023-11-18T00:30:40;-0.20;99.90
29281;DHT22;25048;49.590;11.026;2023-11-18T00:33:18;-0.30;99.90
29281;DHT22;25048;49.590;11.026;2023-11-18T00:35:57;-0.30;99.90
29281;DHT22;25048;49.590;11.026;2023-11-18T00:38:48;-0.40;99.90
29281;DHT22;25048;49.590;11.026;2023-11-18T00:41:29;-0.40;99.90
29281;DHT22;25048;49.590;11.026;2023-11-18T00:47:29;-0.50;99.90
29281;DHT22;25048;49.590;11.026;2023-11-18T00:50:06;-0.50;99.90
29281;DHT22;25048;49.590;11.026;2023-11-18T00:52:40;-0.50;99.90
29281;DHT22;25048;49.590;11.026;2023-11-18T01:03:07;-0.60;99.90
29281;DHT22;25048;49.590;11.026;2023-11-18T01:05:45;-0.60;99.90
29281;DHT22;25048;49.590;11.026;2023-11-18T01:08:17;-0.60;99.90
29281;DHT22;25048;49.590;11.026;2023-11-18T01:10:52;-0.70;99.90
29281;DHT22;25048;49.590;11.026;2023-11-18T01:13:24;-0.70;99.90
29281;DHT22;25048;49.590;11.026;2023-11-18T01:15:56;-0.70;99.90
29281;DHT22;25048;49.590;11.026;2023-11-18T01:18:47;-0.70;99.90
29281;DHT22;25048;49.590;11.026;2023-11-18T01:27:06;-0.80;99.90
29281;DHT22;25048;49.590;11.026;2023-11-18T01:29:35;-0.80;99.90
29281;DHT22;25048;49.590;11.026;2023-11-18T01:32:03;-0.90;99.90
29281;DHT22;25048;49.590;11.026;2023-11-18T01:34:32;-0.90;99.90
29281;DHT22;25048;49.590;11.026;2023-11-18T01:37:00;-0.90;99.90
29281;DHT22;25048;49.590;11.026;2023-11-18T01:39:28;-0.90;99.90
29281;DHT22;25048;49.590;11.026;2023-11-18T01:41:56;-1.00;99.90
29281;DHT22;25048;49.590;11.026;2023-11-18T01:44:26;-1.00;99.90
29281;DHT22;25048;49.590;11.026;2023-11-18T01:46:56;-1.00;99.90
29281;DHT22;25048;49.590;11.026;2023-11-18T01:49:27;-1.00;99.90
29281;DHT22;25048;49.590;11.026;2023-11-18T01:51:55;-1.00;99.90
29281;DHT22;25048;49.590;11.026;2023-11-18T01:54:24;-1.00;99.90
29281;DHT22;25048;49.590;11.026;2023-11-18T01:56:54;-1.00;99.90
29281;DHT22;25048;49.590;11.026;2023-11-18T01:59:23;-1.00;99.90
29281;DHT22;25048;49.590;11.026;2023-11-18T02:01:53;-1.10;99.90
29281;DHT22;25048;49.590;11.026;2023-11-18T02:04:24;-1.10;99.90
29281;DHT22;25048;49.590;11.026;2023-11-18T02:06:52;-1.10;99.90
29281;DHT22;25048;49.590;11.026;2023-11-18T02:09:21;-1.20;99.90
29281;DHT22;25048;49.590;11.026;2023-11-18T02:14:40;-1.20;99.90
29281;DHT22;25048;49.590;11.026;2023-11-18T02:17:09;-1.20;99.90
29281;DHT22;25048;49.590;11.026;2023-11-18T02:19:39;-1.20;99.90
29281;DHT22;25048;49.590;11.026;2023-11-18T02:22:08;-1.10;99.90
29281;DHT22;25048;49.590;11.026;2023-11-18T02:24:38;-1.10;99.90
29281;DHT22;25048;49.590;11.026;2023-11-18T02:27:07;-1.00;99.90
29281;DHT22;25048;49.590;11.026;2023-11-18T02:29:42;-1.00;99.90
29281;DHT22;25048;49.590;11.026;2023-11-18T02:32:20;-1.00;99.90
29281;DHT22;25048;49.590;11.026;2023-11-18T02:37:39;-0.90;99.90
29281;DHT22;25048;49.590;11.026;2023-11-18T02:40:10;-0.80;99.90
29281;DHT22;25048;49.590;11.026;2023-11-18T02:42:42;-0.80;99.90
29281;DHT22;25048;49.590;11.026;2023-11-18T02:45:12;-0.70;99.90
29281;DHT22;25048;49.590;11.026;2023-11-18T02:47:44;-0.70;99.90
29281;DHT22;25048;49.590;11.026;2023-11-18T02:50:12;-0.60;99.90
29281;DHT22;25048;49.590;11.026;2023-11-18T02:52:40;-0.70;99.90
29281;DHT22;25048;49.590;11.026;2023-11-18T02:55:09;-0.70;99.90
29281;DHT22;25048;49.590;11.026;2023-11-18T02:57:38;-0.80;99.90
29281;DHT22;25048;49.590;11.026;2023-11-18T03:00:06;-0.80;99.90
29281;DHT22;25048;49.590;11.026;2023-11-18T03:02:35;-0.90;99.90
29281;DHT22;25048;49.590;11.026;2023-11-18T03:05:05;-1.00;99.90
29281;DHT22;25048;49.590;11.026;2023-11-18T03:07:34;-1.00;99.90
29281;DHT22;25048;49.590;11.026;2023-11-18T03:10:01;-1.00;99.90
29281;DHT22;25048;49.590;11.026;2023-11-18T03:12:29;-1.00;99.90
29281;DHT22;25048;49.590;11.026;2023-11-18T03:14:57;-1.00;99.90
29281;DHT22;25048;49.590;11.026;2023-11-18T03:17:25;-1.10;99.90
29281;DHT22;25048;49.590;11.026;2023-11-18T03:19:53;-1.10;99.90
29281;DHT22;25048;49.590;11.026;2023-11-18T03:22:22;-1.10;99.90
29281;DHT22;25048;49.590;11.026;2023-11-18T03:24:49;-1.10;99.90
29281;DHT22;25048;49.590;11.026;2023-11-18T03:27:17;-1.10;99.90
29281;DHT22;25048;49.590;11.026;2023-11-18T03:29:45;-1.00;99.90
29281;DHT22;25048;49.590;11.026;2023-11-18T03:32:12;-0.90;99.90
29281;DHT22;25048;49.590;11.026;2023-11-18T03:34:40;-0.90;99.90
29281;DHT22;25048;49.590;11.026;2023-11-18T03:37:07;-0.90;99.90
29281;DHT22;25048;49.590;11.026;2023-11-18T03:39:35;-0.80;99.90
29281;DHT22;25048;49.590;11.026;2023-11-18T03:42:03;-0.80;99.90
29281;DHT22;25048;49.590;11.026;2023-11-18T03:44:30;-0.80;99.90
29281;DHT22;25048;49.590;11.026;2023-11-18T03:46:58;-0.80;99.90
29281;DHT22;25048;49.590;11.026;2023-11-18T03:49:25;-0.70;99.90
29281;DHT22;25048;49.590;11.026;2023-11-18T03:51:53;-0.60;99.90
29281;DHT22;25048;49.590;11.026;2023-11-18T03:54:21;-0.60;99.90
29281;DHT22;25048;49.590;11.026;2023-11-18T03:56:48;-0.60;99.90
29281;DHT22;25048;49.590;11.026;2023-11-18T03:59:16;-0.60;99.90
29281;DHT22;25048;49.590;11.026;2023-11-18T04:01:43;-0.60;99.90
29281;DHT22;25048;49.590;11.026;2023-11-18T04:04:11;-0.70;99.90
29281;DHT22;25048;49.590;11.026;2023-11-18T04:06:38;-0.70;99.90
29281;DHT22;25048;49.590;11.026;2023-11-18T04:09:06;-0.80;99.90
29281;DHT22;25048;49.590;11.026;2023-11-18T04:11:35;-0.80;99.90
29281;DHT22;25048;49.590;11.026;2023-11-18T04:14:04;-0.90;99.90
29281;DHT22;25048;49.590;11.026;2023-11-18T04:16:32;-0.90;99.90
29281;DHT22;25048;49.590;11.026;2023-11-18T04:19:00;-1.00;99.90
29281;DHT22;25048;49.590;11.026;2023-11-18T04:21:28;-1.00;99.90
29281;DHT22;25048;49.590;11.026;2023-11-18T04:23:55;-1.10;99.90
29281;DHT22;25048;49.590;11.026;2023-11-18T04:26:23;-1.20;99.90
29281;DHT22;25048;49.590;11.026;2023-11-18T04:28:51;-1.30;99.90
29281;DHT22;25048;49.590;11.026;2023-11-18T04:31:18;-1.30;99.90
29281;DHT22;25048;49.590;11.026;2023-11-18T04:33:48;-1.40;99.90
29281;DHT22;25048;49.590;11.026;2023-11-18T04:36:15;-1.40;99.90
29281;DHT22;25048;49.590;11.026;2023-11-18T04:38:43;-1.40;99.90
29281;DHT22;25048;49.590;11.026;2023-11-18T04:41:11;-1.40;99.90
29281;DHT22;25048;49.590;11.026;2023-11-18T04:43:38;-1.40;99.90
29281;DHT22;25048;49.590;11.026;2023-11-18T04:46:07;-1.50;99.90
29281;DHT22;25048;49.590;11.026;2023-11-18T04:48:35;-1.50;99.90
29281;DHT22;25048;49.590;11.026;2023-11-18T04:51:02;-1.50;99.90
29281;DHT22;25048;49.590;11.026;2023-11-18T04:53:30;-1.40;99.90
29281;DHT22;25048;49.590;11.026;2023-11-18T04:55:58;-1.40;99.90
29281;DHT22;25048;49.590;11.026;2023-11-18T04:58:25;-1.30;99.90
29281;DHT22;25048;49.590;11.026;2023-11-18T05:00:53;-1.30;99.90
29281;DHT22;25048;49.590;11.026;2023-11-18T05:03:20;-1.30;99.90
29281;DHT22;25048;49.590;11.026;2023-11-18T05:05:50;-1.30;99.90
29281;DHT22;25048;49.590;11.026;2023-11-18T05:08:21;-1.40;99.90
29281;DHT22;25048;49.590;11.026;2023-11-18T05:10:50;-1.40;99.90
29281;DHT22;25048;49.590;11.026;2023-11-18T05:13:18;-1.40;99.90
29281;DHT22;25048;49.590;11.026;2023-11-18T05:15:47;-1.40;99.90
29281;DHT22;25048;49.590;11.026;2023-11-18T05:18:16;-1.40;99.90
29281;DHT22;25048;49.590;11.026;2023-11-18T05:20:44;-1.30;99.90
29281;DHT22;25048;49.590;11.026;2023-11-18T05:23:13;-1.40;99.90
29281;DHT22;25048;49.590;11.026;2023-11-18T05:25:41;-1.50;99.90
29281;DHT22;25048;49.590;11.026;2023-11-18T05:28:10;-1.60;99.90
29281;DHT22;25048;49.590;11.026;2023-11-18T05:30:38;-1.70;99.90
29281;DHT22;25048;49.590;11.026;2023-11-18T05:33:07;-1.70;99.90
29281;DHT22;25048;49.590;11.026;2023-11-18T05:35:36;-1.70;99.90
29281;DHT22;25048;49.590;11.026;2023-11-18T05:38:04;-1.70;99.90
29281;DHT22;25048;49.590;11.026;2023-11-18T05:40:32;-1.70;99.90
29281;DHT22;25048;49.590;11.026;2023-11-18T05:43:01;-1.70;99.90
29281;DHT22;25048;49.590;11.026;2023-11-18T05:45:30;-1.80;99.90
29281;DHT22;25048;49.590;11.026;2023-11-18T05:48:00;-1.80;99.90
29281;DHT22;25048;49.590;11.026;2023-11-18T05:50:29;-1.80;99.90
29281;DHT22;25048;49.590;11.026;2023-11-18T05:52:56;-1.90;99.90
29281;DHT22;25048;49.590;11.026;2023-11-18T05:55:24;-1.90;99.90
29281;DHT22;25048;49.590;11.026;2023-11-18T05:57:51;-1.90;99.90
29281;DHT22;25048;49.590;11.026;2023-11-18T06:00:19;-1.90;99.90
29281;DHT22;25048;49.590;11.026;2023-11-18T06:02:47;-1.90;99.90
29281;DHT22;25048;49.590;11.026;2023-11-18T06:05:15;-2.00;99.90
29281;DHT22;25048;49.590;11.026;2023-11-18T06:07:43;-2.00;99.90
29281;DHT22;25048;49.590;11.026;2023-11-18T06:10:11;-2.00;99.90
29281;DHT22;25048;49.590;11.026;2023-11-18T06:12:39;-2.00;99.90
29281;DHT22;25048;49.590;11.026;2023-11-18T06:15:07;-2.00;99.90
29281;DHT22;25048;49.590;11.026;2023-11-18T06:17:36;-1.90;99.90
29281;DHT22;25048;49.590;11.026;2023-11-18T06:20:04;-1.90;99.90
29281;DHT22;25048;49.590;11.026;2023-11-18T06:22:32;-1.90;99.90
29281;DHT22;25048;49.590;11.026;2023-11-18T06:25:00;-1.90;99.90
29281;DHT22;25048;49.590;11.026;2023-11-18T06:27:29;-1.80;99.90
29281;DHT22;25048;49.590;11.026;2023-11-18T06:29:56;-1.70;99.90
29281;DHT22;25048;49.590;11.026;2023-11-18T06:32:24;-1.70;99.90
29281;DHT22;25048;49.590;11.026;2023-11-18T06:34:53;-1.60;99.90
29281;DHT22;25048;49.590;11.026;2023-11-18T06:37:22;-1.60;99.90
29281;DHT22;25048;49.590;11.026;2023-11-18T06:39:49;-1.50;99.90
29281;DHT22;25048;49.590;11.026;2023-11-18T06:42:17;-1.50;99.90
29281;DHT22;25048;49.590;11.026;2023-11-18T06:44:44;-1.40;99.90
29281;DHT22;25048;49.590;11.026;2023-11-18T06:47:12;-1.30;99.90
29281;DHT22;25048;49.590;11.026;2023-11-18T06:49:39;-1.20;99.90
29281;DHT22;25048;49.590;11.026;2023-11-18T06:52:07;-1.10;99.90
29281;DHT22;25048;49.590;11.026;2023-11-18T06:54:36;-1.10;99.90
29281;DHT22;25048;49.590;11.026;2023-11-18T06:57:04;-1.10;99.90
29281;DHT22;25048;49.590;11.026;2023-11-18T06:59:33;-1.20;99.90
29281;DHT22;25048;49.590;11.026;2023-11-18T07:02:01;-1.20;99.90
29281;DHT22;25048;49.590;11.026;2023-11-18T07:04:28;-1.20;99.90
29281;DHT22;25048;49.590;11.026;2023-11-18T07:06:57;-1.30;99.90
29281;DHT22;25048;49.590;11.026;2023-11-18T07:09:25;-1.20;99.90
29281;DHT22;25048;49.590;11.026;2023-11-18T07:11:52;-1.20;99.90
29281;DHT22;25048;49.590;11.026;2023-11-18T07:14:21;-1.20;99.90
29281;DHT22;25048;49.590;11.026;2023-11-18T07:16:49;-1.20;99.90
29281;DHT22;25048;49.590;11.026;2023-11-18T07:19:16;-1.20;99.90
29281;DHT22;25048;49.590;11.026;2023-11-18T07:21:47;-1.20;99.90
29281;DHT22;25048;49.590;11.026;2023-11-18T07:24:15;-1.20;99.90
29281;DHT22;25048;49.590;11.026;2023-11-18T07:26:43;-1.20;99.90
29281;DHT22;25048;49.590;11.026;2023-11-18T07:29:11;-1.10;99.90
29281;DHT22;25048;49.590;11.026;2023-11-18T07:31:39;-1.00;99.90
29281;DHT22;25048;49.590;11.026;2023-11-18T07:34:06;-0.80;99.90
29281;DHT22;25048;49.590;11.026;2023-11-18T07:36:34;-0.80;99.90
29281;DHT22;25048;49.590;11.026;2023-11-18T07:39:01;-0.60;99.90
29281;DHT22;25048;49.590;11.026;2023-11-18T07:41:31;-0.50;99.90
29281;DHT22;25048;49.590;11.026;2023-11-18T07:43:59;-0.30;99.90
29281;DHT22;25048;49.590;11.026;2023-11-18T07:46:27;-0.20;99.90
29281;DHT22;25048;49.590;11.026;2023-11-18T07:48:56;-0.10;99.90
29281;DHT22;25048;49.590;11.026;2023-11-18T07:51:24;0.00;99.90
29281;DHT22;25048;49.590;11.026;2023-11-18T07:53:52;0.10;99.90
29281;DHT22;25048;49.590;11.026;2023-11-18T07:56:19;0.10;99.90
29281;DHT22;25048;49.590;11.026;2023-11-18T07:58:49;0.20;99.90
29281;DHT22;25048;49.590;11.026;2023-11-18T08:01:18;0.30;99.90
29281;DHT22;25048;49.590;11.026;2023-11-18T08:03:47;0.30;99.90
29281;DHT22;25048;49.590;11.026;2023-11-18T08:06:14;0.40;99.90
29281;DHT22;25048;49.590;11.026;2023-11-18T08:08:43;0.50;99.90
29281;DHT22;25048;49.590;11.026;2023-11-18T08:11:11;0.70;99.90
29281;DHT22;25048;49.590;11.026;2023-11-18T08:13:39;0.90;99.90
29281;DHT22;25048;49.590;11.026;2023-11-18T08:16:09;1.00;99.90
29281;DHT22;25048;49.590;11.026;2023-11-18T08:18:38;1.10;99.90
29281;DHT22;25048;49.590;11.026;2023-11-18T08:21:06;1.20;99.90
29281;DHT22;25048;49.590;11.026;2023-11-18T08:23:35;1.30;99.90
29281;DHT22;25048;49.590;11.026;2023-11-18T08:26:12;1.30;99.90
29281;DHT22;25048;49.590;11.026;2023-11-18T08:28:42;1.40;99.90
29281;DHT22;25048;49.590;11.026;2023-11-18T08:31:13;1.40;99.90
29281;DHT22;25048;49.590;11.026;2023-11-18T08:33:44;1.40;99.90
29281;DHT22;25048;49.590;11.026;2023-11-18T08:36:12;1.40;99.90
29281;DHT22;25048;49.590;11.026;2023-11-18T08:38:41;1.50;99.90
29281;DHT22;25048;49.590;11.026;2023-11-18T08:41:10;1.50;99.90
29281;DHT22;25048;49.590;11.026;2023-11-18T08:43:42;1.60;99.90
29281;DHT22;25048;49.590;11.026;2023-11-18T08:46:42;1.60;99.90
29281;DHT22;25048;49.590;11.026;2023-11-18T08:49:10;1.70;99.90
29281;DHT22;25048;49.590;11.026;2023-11-18T08:52:05;1.70;99.90
29281;DHT22;25048;49.590;11.026;2023-11-18T08:54:34;1.80;99.90
29281;DHT22;25048;49.590;11.026;2023-11-18T08:57:06;1.80;99.90
29281;DHT22;25048;49.590;11.026;2023-11-18T08:59:36;1.80;99.90
29281;DHT22;25048;49.590;11.026;2023-11-18T09:02:04;1.90;99.90
29281;DHT22;25048;49.590;11.026;2023-11-18T09:04:33;1.90;99.90
29281;DHT22;25048;49.590;11.026;2023-11-18T09:07:02;1.90;99.90
29281;DHT22;25048;49.590;11.026;2023-11-18T09:09:30;2.00;99.90
29281;DHT22;25048;49.590;11.026;2023-11-18T09:12:00;2.10;99.90
29281;DHT22;25048;49.590;11.026;2023-11-18T09:14:29;2.20;99.90
29281;DHT22;25048;49.590;11.026;2023-11-18T09:20:22;2.40;99.90
29281;DHT22;25048;49.590;11.026;2023-11-18T09:22:49;2.50;99.90
29281;DHT22;25048;49.590;11.026;2023-11-18T09:25:19;2.60;99.90
29281;DHT22;25048;49.590;11.026;2023-11-18T09:27:48;2.70;99.90
29281;DHT22;25048;49.590;11.026;2023-11-18T09:30:15;2.70;99.90
29281;DHT22;25048;49.590;11.026;2023-11-18T09:32:43;2.80;99.90
29281;DHT22;25048;49.590;11.026;2023-11-18T09:35:13;2.90;99.90
29281;DHT22;25048;49.590;11.026;2023-11-18T09:37:40;2.90;99.90
29281;DHT22;25048;49.590;11.026;2023-11-18T09:40:13;2.90;99.90
29281;DHT22;25048;49.590;11.026;2023-11-18T09:42:41;2.90;99.90
29281;DHT22;25048;49.590;11.026;2023-11-18T09:45:11;2.90;99.90
29281;DHT22;25048;49.590;11.026;2023-11-18T09:47:42;2.90;99.90
29281;DHT22;25048;49.590;11.026;2023-11-18T09:50:15;3.00;99.90
29281;DHT22;25048;49.590;11.026;2023-11-18T09:52:49;3.10;99.90
29281;DHT22;25048;49.590;11.026;2023-11-18T09:55:29;3.30;99.90
29281;DHT22;25048;49.590;11.026;2023-11-18T09:58:06;3.40;99.90
29281;DHT22;25048;49.590;11.026;2023-11-18T10:00:31;3.40;99.90
29281;DHT22;25048;49.590;11.026;2023-11-18T10:03:03;3.40;99.90
29281;DHT22;25048;49.590;11.026;2023-11-18T10:05:32;3.40;99.90
29281;DHT22;25048;49.590;11.026;2023-11-18T10:08:06;3.50;99.90
29281;DHT22;25048;49.590;11.026;2023-11-18T10:10:35;3.70;99.90
29281;DHT22;25048;49.590;11.026;2023-11-18T10:13:06;3.80;99.90
29281;DHT22;25048;49.590;11.026;2023-11-18T10:15:38;4.00;99.90
29281;DHT22;25048;49.590;11.026;2023-11-18T10:18:06;4.20;99.90
29281;DHT22;25048;49.590;11.026;2023-11-18T10:20:46;4.30;99.90
29281;DHT22;25048;49.590;11.026;2023-11-18T10:23:15;4.50;99.90
29281;DHT22;25048;49.590;11.026;2023-11-18T10:28:29;4.60;99.90
29281;DHT22;25048;49.590;11.026;2023-11-18T10:31:04;4.70;99.90
29281;DHT22;25048;49.590;11.026;2023-11-18T10:33:33;4.70;99.90
29281;DHT22;25048;49.590;11.026;2023-11-18T10:36:04;4.80;99.90
29281;DHT22;25048;49.590;11.026;2023-11-18T10:38:38;4.80;99.90
29281;DHT22;25048;49.590;11.026;2023-11-18T10:41:10;4.80;99.90
29281;DHT22;25048;49.590;11.026;2023-11-18T10:43:38;4.90;99.90
29281;DHT22;25048;49.590;11.026;2023-11-18T10:46:12;5.10;99.90
29281;DHT22;25048;49.590;11.026;2023-11-18T10:48:44;5.20;99.90
29281;DHT22;25048;49.590;11.026;2023-11-18T10:51:15;5.30;99.90
29281;DHT22;25048;49.590;11.026;2023-11-18T10:53:43;5.40;99.90
29281;DHT22;25048;49.590;11.026;2023-11-18T10:56:22;5.50;99.90
29281;DHT22;25048;49.590;11.026;2023-11-18T10:58:56;5.50;99.90
29281;DHT22;25048;49.590;11.026;2023-11-18T11:01:31;5.50;99.90
29281;DHT22;25048;49.590;11.026;2023-11-18T11:04:00;5.50;99.90
29281;DHT22;25048;49.590;11.026;2023-11-18T11:06:29;5.60;99.90
29281;DHT22;25048;49.590;11.026;2023-11-18T11:08:58;5.60;99.90
29281;DHT22;25048;49.590;11.026;2023-11-18T11:11:32;5.60;99.90
29281;DHT22;25048;49.590;11.026;2023-11-18T11:14:01;5.60;99.90
29281;DHT22;25048;49.590;11.026;2023-11-18T11:16:44;5.60;99.90
29281;DHT22;25048;49.590;11.026;2023-11-18T11:19:20;5.60;99.90
29281;DHT22;25048;49.590;11.026;2023-11-18T11:21:47;5.60;99.90
29281;DHT22;25048;49.590;11.026;2023-11-18T11:24:28;5.60;99.90
29281;DHT22;25048;49.590;11.026;2023-11-18T11:27:17;5.60;99.90
29281;DHT22;25048;49.590;11.026;2023-11-18T11:29:51;5.80;99.90
29281;DHT22;25048;49.590;11.026;2023-11-18T11:32:23;5.90;99.90
29281;DHT22;25048;49.590;11.026;2023-11-18T11:34:54;6.00;99.90
29281;DHT22;25048;49.590;11.026;2023-11-18T11:37:26;6.10;99.90
29281;DHT22;25048;49.590;11.026;2023-11-18T11:39:56;6.30;99.90
29281;DHT22;25048;49.590;11.026;2023-11-18T11:42:24;6.40;99.90
29281;DHT22;25048;49.590;11.026;2023-11-18T11:44:53;6.60;99.90
29281;DHT22;25048;49.590;11.026;2023-11-18T11:47:22;6.80;99.90
29281;DHT22;25048;49.590;11.026;2023-11-18T11:49:59;6.80;99.90
29281;DHT22;25048;49.590;11.026;2023-11-18T11:52:32;6.80;99.90
29281;DHT22;25048;49.590;11.026;2023-11-18T11:55:09;6.90;99.90
29281;DHT22;25048;49.590;11.026;2023-11-18T11:57:40;6.90;99.90
29281;DHT22;25048;49.590;11.026;2023-11-18T12:00:12;6.90;99.90
29281;DHT22;25048;49.590;11.026;2023-11-18T12:02:48;7.00;99.90
29281;DHT22;25048;49.590;11.026;2023-11-18T12:05:17;7.10;99.90
29281;DHT22;25048;49.590;11.026;2023-11-18T12:07:49;7.10;99.90
29281;DHT22;25048;49.590;11.026;2023-11-18T12:10:16;7.20;99.90
29281;DHT22;25048;49.590;11.026;2023-11-18T12:12:45;7.30;99.90
29281;DHT22;25048;49.590;11.026;2023-11-18T12:15:13;7.50;99.90
29281;DHT22;25048;49.590;11.026;2023-11-18T12:20:43;7.60;99.90
29281;DHT22;25048;49.590;11.026;2023-11-18T12:23:18;7.60;99.90
29281;DHT22;25048;49.590;11.026;2023-11-18T12:25:47;7.50;99.90
29281;DHT22;25048;49.590;11.026;2023-11-18T12:28:21;7.50;99.90
29281;DHT22;25048;49.590;11.026;2023-11-18T12:30:50;7.50;99.90
29281;DHT22;25048;49.590;11.026;2023-11-18T12:33:24;7.50;99.90
29281;DHT22;25048;49.590;11.026;2023-11-18T12:36:12;7.40;99.90
29281;DHT22;25048;49.590;11.026;2023-11-18T12:41:36;7.50;99.90
29281;DHT22;25048;49.590;11.026;2023-11-18T12:44:35;7.60;99.90
29281;DHT22;25048;49.590;11.026;2023-11-18T12:47:04;7.60;99.90
29281;DHT22;25048;49.590;11.026;2023-11-18T12:49:48;7.60;99.90
29281;DHT22;25048;49.590;11.026;2023-11-18T12:52:22;7.60;99.90
29281;DHT22;25048;49.590;11.026;2023-11-18T12:54:50;7.70;99.90
29281;DHT22;25048;49.590;11.026;2023-11-18T12:57:23;7.70;99.90
29281;DHT22;25048;49.590;11.026;2023-11-18T12:59:52;7.70;99.90
29281;DHT22;25048;49.590;11.026;2023-11-18T13:02:19;7.70;99.90
29281;DHT22;25048;49.590;11.026;2023-11-18T13:04:47;7.70;99.90
29281;DHT22;25048;49.590;11.026;2023-11-18T13:07:22;7.80;99.90
29281;DHT22;25048;49.590;11.026;2023-11-18T13:09:58;7.80;99.90
29281;DHT22;25048;49.590;11.026;2023-11-18T13:12:39;7.80;99.90
29281;DHT22;25048;49.590;11.026;2023-11-18T13:18:02;7.80;99.90
29281;DHT22;25048;49.590;11.026;2023-11-18T13:20:34;7.80;99.90
29281;DHT22;25048;49.590;11.026;2023-11-18T13:23:03;7.80;99.90
29281;DHT22;25048;49.590;11.026;2023-11-18T13:25:33;7.80;99.90
29281;DHT22;25048;49.590;11.026;2023-11-18T13:31:09;7.90;99.90
29281;DHT22;25048;49.590;11.026;2023-11-18T13:33:39;7.90;99.90
29281;DHT22;25048;49.590;11.026;2023-11-18T13:36:32;7.80;99.90
29281;DHT22;25048;49.590;11.026;2023-11-18T13:39:08;7.80;99.90
29281;DHT22;25048;49.590;11.026;2023-11-18T13:41:40;7.70;99.90
29281;DHT22;25048;49.590;11.026;2023-11-18T13:44:08;7.80;99.90
29281;DHT22;25048;49.590;11.026;2023-11-18T13:46:42;7.90;99.90
29281;DHT22;25048;49.590;11.026;2023-11-18T13:49:10;7.90;99.90
29281;DHT22;25048;49.590;11.026;2023-11-18T13:51:41;7.90;99.90
29281;DHT22;25048;49.590;11.026;2023-11-18T13:54:09;7.90;99.90
29281;DHT22;25048;49.590;11.026;2023-11-18T13:56:46;7.90;99.90
29281;DHT22;25048;49.590;11.026;2023-11-18T13:59:14;7.90;99.90
29281;DHT22;25048;49.590;11.026;2023-11-18T14:01:42;7.90;99.90
29281;DHT22;25048;49.590;11.026;2023-11-18T14:04:10;7.80;99.90
29281;DHT22;25048;49.590;11.026;2023-11-18T14:06:38;7.80;99.90
29281;DHT22;25048;49.590;11.026;2023-11-18T14:09:06;7.80;99.90
29281;DHT22;25048;49.590;11.026;2023-11-18T14:11:39;7.70;99.90
29281;DHT22;25048;49.590;11.026;2023-11-18T14:14:11;7.70;99.90
29281;DHT22;25048;49.590;11.026;2023-11-18T14:16:40;7.60;99.90
29281;DHT22;25048;49.590;11.026;2023-11-18T14:19:07;7.50;99.90
29281;DHT22;25048;49.590;11.026;2023-11-18T14:21:35;7.50;99.90
29281;DHT22;25048;49.590;11.026;2023-11-18T14:24:03;7.50;99.90
29281;DHT22;25048;49.590;11.026;2023-11-18T14:26:32;7.50;99.90
29281;DHT22;25048;49.590;11.026;2023-11-18T14:29:00;7.40;99.90
29281;DHT22;25048;49.590;11.026;2023-11-18T14:31:28;7.40;99.90
29281;DHT22;25048;49.590;11.026;2023-11-18T14:33:56;7.30;99.90
29281;DHT22;25048;49.590;11.026;2023-11-18T14:36:26;7.20;99.90
29281;DHT22;25048;49.590;11.026;2023-11-18T14:38:53;7.10;99.90
29281;DHT22;25048;49.590;11.026;2023-11-18T14:41:21;7.10;99.90
29281;DHT22;25048;49.590;11.026;2023-11-18T14:43:51;7.00;99.90
29281;DHT22;25048;49.590;11.026;2023-11-18T14:46:19;7.00;99.90
29281;DHT22;25048;49.590;11.026;2023-11-18T14:48:46;6.90;99.90
29281;DHT22;25048;49.590;11.026;2023-11-18T14:51:14;6.90;99.90
29281;DHT22;25048;49.590;11.026;2023-11-18T14:53:42;6.80;99.90
29281;DHT22;25048;49.590;11.026;2023-11-18T14:56:12;6.70;99.90
29281;DHT22;25048;49.590;11.026;2023-11-18T14:58:41;6.70;99.90
29281;DHT22;25048;49.590;11.026;2023-11-18T15:01:10;6.70;99.90
29281;DHT22;25048;49.590;11.026;2023-11-18T15:03:38;6.60;99.90
29281;DHT22;25048;49.590;11.026;2023-11-18T15:06:06;6.60;99.90
29281;DHT22;25048;49.590;11.026;2023-11-18T15:08:35;6.60;99.90
29281;DHT22;25048;49.590;11.026;2023-11-18T15:11:03;6.50;99.90
29281;DHT22;25048;49.590;11.026;2023-11-18T15:13:32;6.50;99.90
29281;DHT22;25048;49.590;11.026;2023-11-18T15:16:00;6.50;99.90
29281;DHT22;25048;49.590;11.026;2023-11-18T15:18:29;6.40;99.90
29281;DHT22;25048;49.590;11.026;2023-11-18T15:20:58;6.40;99.90
29281;DHT22;25048;49.590;11.026;2023-11-18T15:23:28;6.30;99.90
29281;DHT22;25048;49.590;11.026;2023-11-18T15:25:57;6.30;99.90
29281;DHT22;25048;49.590;11.026;2023-11-18T15:28:26;6.30;99.90
29281;DHT22;25048;49.590;11.026;2023-11-18T15:30:54;6.30;99.90
29281;DHT22;25048;49.590;11.026;2023-11-18T15:33:22;6.20;99.90
29281;DHT22;25048;49.590;11.026;2023-11-18T15:35:49;6.20;99.90
29281;DHT22;25048;49.590;11.026;2023-11-18T15:38:18;6.20;99.90
29281;DHT22;25048;49.590;11.026;2023-11-18T15:40:48;6.20;99.90
29281;DHT22;25048;49.590;11.026;2023-11-18T15:43:19;6.20;99.90
29281;DHT22;25048;49.590;11.026;2023-11-18T15:45:50;6.10;99.90
29281;DHT22;25048;49.590;11.026;2023-11-18T15:48:18;6.10;99.90
29281;DHT22;25048;49.590;11.026;2023-11-18T15:50:46;6.00;99.90
29281;DHT22;25048;49.590;11.026;2023-11-18T15:53:14;6.00;99.90
29281;DHT22;25048;49.590;11.026;2023-11-18T15:55:41;6.00;99.90
29281;DHT22;25048;49.590;11.026;2023-11-18T15:58:11;5.90;99.90
29281;DHT22;25048;49.590;11.026;2023-11-18T16:00:39;5.90;99.90
29281;DHT22;25048;49.590;11.026;2023-11-18T16:03:07;5.90;99.90
29281;DHT22;25048;49.590;11.026;2023-11-18T16:05:35;5.90;99.90
29281;DHT22;25048;49.590;11.026;2023-11-18T16:08:03;5.80;99.90
29281;DHT22;25048;49.590;11.026;2023-11-18T16:10:32;5.80;99.90
29281;DHT22;25048;49.590;11.026;2023-11-18T16:13:01;5.80;99.90
29281;DHT22;25048;49.590;11.026;2023-11-18T16:15:29;5.80;99.90
29281;DHT22;25048;49.590;11.026;2023-11-18T16:17:59;5.80;99.90
29281;DHT22;25048;49.590;11.026;2023-11-18T16:20:31;5.80;99.90
29281;DHT22;25048;49.590;11.026;2023-11-18T16:22:59;5.80;99.90
29281;DHT22;25048;49.590;11.026;2023-11-18T16:25:29;5.80;99.90
29281;DHT22;25048;49.590;11.026;2023-11-18T16:27:58;5.70;99.90
29281;DHT22;25048;49.590;11.026;2023-11-18T16:30:28;5.70;99.90
29281;DHT22;25048;49.590;11.026;2023-11-18T16:32:57;5.70;99.90